createdAt,value
2023-03-16T00:00:51.712Z,99364.47
2023-03-16T00:03:39.977Z,99353.41
2023-03-16T00:06:28.654Z,99368.88
2023-03-16T00:09:17.700Z,99363.88
2023-03-16T00:12:05.431Z,99379.78
2023-03-16T00:14:54.440Z,99380.47
2023-03-16T00:17:42.067Z,99381.63
2023-03-16T00:20:29.802Z,99382.16
2023-03-16T00:23:17.476Z,99355.34
2023-03-16T00:26:08.242Z,99395.88
2023-03-16T00:28:55.869Z,99396.53
2023-03-16T00:31:44.327Z,99403.31
2023-03-16T00:34:34.970Z,99402.41
2023-03-16T00:37:26.262Z,99416.13
2023-03-16T00:40:14.198Z,99411.78
2023-03-16T00:43:03.605Z,99417.63
2023-03-16T00:45:52.619Z,99422.41
2023-03-16T00:48:43.917Z,99425.72
2023-03-16T00:51:34.070Z,99419.66
2023-03-16T00:54:22.436Z,99412.13
2023-03-16T00:57:12.414Z,99427.31
2023-03-16T01:00:00.763Z,99425.63
2023-03-16T01:02:48.873Z,99428.38
2023-03-16T01:05:41.063Z,99396.63
2023-03-16T01:08:28.632Z,99424.69
2023-03-16T01:11:18.756Z,99432.94
2023-03-16T01:14:06.390Z,99431.91
2023-03-16T01:16:54.311Z,99426.31
2023-03-16T01:19:43.899Z,99425.84
2023-03-16T01:22:34.016Z,99444.91
2023-03-16T01:25:24.340Z,99414.06
2023-03-16T01:28:13.757Z,99449.94
2023-03-16T01:31:07.272Z,99461.22
2023-03-16T01:33:55.774Z,99458.94
2023-03-16T01:36:51.296Z,99472.06
2023-03-16T01:39:46.933Z,99469.44
2023-03-16T01:42:46.518Z,99477.66
2023-03-16T01:46:05.679Z,99475.44
2023-03-16T01:49:20.530Z,99472.06
2023-03-16T01:52:23.420Z,99479.25
2023-03-16T01:55:14.304Z,99483.09
2023-03-16T01:58:02.571Z,99487.44
2023-03-16T02:00:50.295Z,99494.13
2023-03-16T02:03:44.209Z,99480.06
2023-03-16T02:06:39.813Z,99442.34
2023-03-16T02:09:29.019Z,99496.72
2023-03-16T02:12:20.473Z,99490.53
2023-03-16T02:15:14.838Z,99504.91
2023-03-16T02:18:05.971Z,99510.38
2023-03-16T02:21:30.268Z,99516.72
2023-03-16T02:24:18.012Z,99511.25
2023-03-16T02:27:10.665Z,99509.41
2023-03-16T02:30:11.990Z,99523.22
2023-03-16T02:33:16.356Z,99511.00
2023-03-16T02:36:05.533Z,99518.22
2023-03-16T02:38:53.312Z,99519.16
2023-03-16T02:41:41.964Z,99518.22
2023-03-16T02:44:36.570Z,99518.06
2023-03-16T02:47:41.762Z,99528.38
2023-03-16T02:50:30.395Z,99531.97
2023-03-16T02:53:18.196Z,99534.81
2023-03-16T02:56:06.349Z,99542.22
2023-03-16T02:58:57.983Z,99530.09
2023-03-16T03:01:46.843Z,99544.16
2023-03-16T03:04:36.899Z,99547.84
2023-03-16T03:07:32.047Z,99551.06
2023-03-16T03:10:24.315Z,99553.34
2023-03-16T03:13:12.561Z,99551.69
2023-03-16T03:16:02.046Z,99532.53
2023-03-16T03:18:50.367Z,99538.34
2023-03-16T03:21:38.676Z,99577.97
2023-03-16T03:24:28.365Z,99575.41
2023-03-16T03:27:15.979Z,99583.66
2023-03-16T03:30:06.652Z,99590.00
2023-03-16T03:32:55.027Z,99615.00
2023-03-16T03:35:43.065Z,99605.41
2023-03-16T03:38:30.860Z,99606.72
2023-03-16T03:41:18.754Z,99606.06
2023-03-16T03:44:09.884Z,99611.13
2023-03-16T03:46:58.857Z,99627.88
2023-03-16T03:49:47.701Z,99621.63
2023-03-16T03:52:38.506Z,99626.16
2023-03-16T03:55:26.354Z,99612.28
2023-03-16T03:58:14.115Z,99638.09
2023-03-16T04:01:04.156Z,99639.25
2023-03-16T04:03:53.742Z,99613.28
2023-03-16T04:06:41.959Z,99650.94
2023-03-16T04:09:30.282Z,99645.94
2023-03-16T04:12:18.041Z,99647.78
2023-03-16T04:15:06.375Z,99625.13
2023-03-16T04:18:02.166Z,99645.50
2023-03-16T04:20:49.964Z,99671.59
2023-03-16T04:23:42.725Z,99662.16
2023-03-16T04:26:31.025Z,99632.09
2023-03-16T04:29:18.810Z,99673.38
2023-03-16T04:32:07.938Z,99671.75
2023-03-16T04:34:56.786Z,99652.03
2023-03-16T04:37:54.074Z,99680.03
2023-03-16T04:40:49.058Z,99684.03
2023-03-16T04:43:40.368Z,99682.59
2023-03-16T04:46:36.274Z,99680.16
2023-03-16T04:49:28.144Z,99682.44
2023-03-16T04:52:15.904Z,99693.16
2023-03-16T04:55:07.397Z,99691.25
2023-03-16T04:57:56.186Z,99692.56
2023-03-16T05:00:45.785Z,99699.53
2023-03-16T05:03:45.136Z,99715.06
2023-03-16T05:06:33.066Z,99688.59
2023-03-16T05:09:22.318Z,99707.88
2023-03-16T05:12:10.990Z,99710.47
2023-03-16T05:14:59.458Z,99718.00
2023-03-16T05:17:58.825Z,99711.09
2023-03-16T05:20:51.793Z,99717.38
2023-03-16T05:23:39.746Z,99728.47
2023-03-16T05:26:27.711Z,99738.88
2023-03-16T05:29:16.972Z,99746.63
2023-03-16T05:32:06.756Z,99750.63
2023-03-16T05:34:54.570Z,99749.19
2023-03-16T05:37:43.201Z,99741.81
2023-03-16T05:40:35.135Z,99717.81
2023-03-16T05:43:32.477Z,99732.31
2023-03-16T05:46:21.004Z,99747.56
2023-03-16T05:49:13.129Z,99756.59
2023-03-16T05:52:01.003Z,99765.13
2023-03-16T05:54:50.505Z,99722.69
2023-03-16T05:57:38.484Z,99746.63
2023-03-16T06:00:28.008Z,99775.53
2023-03-16T06:03:27.039Z,99755.63
2023-03-16T06:06:17.230Z,99786.97
2023-03-16T06:09:15.289Z,99796.13
2023-03-16T06:12:04.284Z,99770.13
2023-03-16T06:14:53.405Z,99795.81
2023-03-16T06:17:42.180Z,99803.06
2023-03-16T06:20:32.403Z,99800.16
2023-03-16T06:23:21.633Z,99792.94
2023-03-16T06:26:13.582Z,99812.88
2023-03-16T06:29:04.065Z,99793.56
2023-03-16T06:31:54.997Z,99829.88
2023-03-16T06:34:44.330Z,99827.81
2023-03-16T06:37:34.691Z,99810.47
2023-03-16T06:40:29.666Z,99848.22
2023-03-16T06:43:17.869Z,99843.22
2023-03-16T06:46:06.073Z,99812.06
2023-03-16T06:48:56.945Z,99852.72
2023-03-16T06:51:44.670Z,99861.41
2023-03-16T06:54:37.700Z,99860.28
2023-03-16T06:57:26.270Z,99850.16
2023-03-16T07:00:15.844Z,99870.88
2023-03-16T07:03:04.624Z,99872.66
2023-03-16T07:09:01.616Z,99881.97
2023-03-16T07:11:52.988Z,99881.50
2023-03-16T07:14:42.392Z,99880.53
2023-03-16T07:17:32.758Z,99869.56
2023-03-16T07:20:23.879Z,99882.47
2023-03-16T07:23:12.749Z,99893.44
2023-03-16T07:26:02.195Z,99889.69
2023-03-16T07:28:50.142Z,99903.38
2023-03-16T07:31:38.031Z,99876.69
2023-03-16T07:34:31.343Z,99890.50
2023-03-16T07:37:25.020Z,99907.56
2023-03-16T07:40:17.235Z,99920.28
2023-03-16T07:43:04.955Z,99908.53
2023-03-16T07:46:00.198Z,99909.16
2023-03-16T07:48:48.047Z,99922.38
2023-03-16T07:51:35.885Z,99932.66
2023-03-16T07:54:24.546Z,99927.53
2023-03-16T07:57:12.540Z,99930.72
2023-03-16T08:00:05.515Z,99933.31
2023-03-16T08:03:00.675Z,99923.50
2023-03-16T08:05:50.144Z,99940.88
2023-03-16T08:08:38.765Z,99936.19
2023-03-16T08:11:27.072Z,99934.13
2023-03-16T08:14:21.975Z,99927.03
2023-03-16T08:17:22.511Z,99927.38
2023-03-16T08:20:14.838Z,99930.91
2023-03-16T08:23:03.679Z,99901.16
2023-03-16T08:25:58.459Z,99941.34
2023-03-16T08:28:48.421Z,99918.03
2023-03-16T08:31:36.460Z,99915.13
2023-03-16T08:34:32.037Z,99952.63
2023-03-16T08:37:20.195Z,99931.06
2023-03-16T08:40:17.052Z,99964.22
2023-03-16T08:43:05.816Z,99935.88
2023-03-16T08:45:56.538Z,99955.19
2023-03-16T08:48:48.839Z,99962.09
2023-03-16T08:51:37.318Z,99971.28
2023-03-16T08:54:25.075Z,99951.19
2023-03-16T08:57:12.765Z,99967.75
2023-03-16T09:00:01.603Z,99969.03
2023-03-16T09:02:49.234Z,99978.53
2023-03-16T09:05:37.091Z,99979.97
2023-03-16T09:08:24.787Z,99982.72
2023-03-16T09:11:15.291Z,99984.66
2023-03-16T09:14:02.985Z,99989.63
2023-03-16T09:16:50.763Z,99991.22
2023-03-16T09:19:50.463Z,100001.03
2023-03-16T09:22:39.316Z,99976.13
2023-03-16T09:25:26.918Z,99992.22
2023-03-16T09:28:16.147Z,100001.72
2023-03-16T09:31:03.865Z,100005.38
2023-03-16T09:33:51.594Z,100008.94
2023-03-16T09:36:39.602Z,100026.16
2023-03-16T09:39:27.727Z,100024.88
2023-03-16T09:42:44.040Z,100024.75
2023-03-16T09:45:57.924Z,100019.41
2023-03-16T09:48:47.603Z,100012.81
2023-03-16T09:51:38.917Z,100008.94
2023-03-16T09:54:56.841Z,100039.06
2023-03-16T09:57:46.770Z,100028.91
2023-03-16T10:00:46.777Z,100026.03
2023-03-16T10:04:05.016Z,100020.38
2023-03-16T10:07:21.316Z,100039.03
2023-03-16T10:10:11.847Z,100024.56
2023-03-16T10:13:01.702Z,100008.63
2023-03-16T10:15:51.761Z,100031.44
2023-03-16T10:18:45.160Z,100022.72
2023-03-16T10:21:40.329Z,100032.22
2023-03-16T10:24:37.142Z,100032.53
2023-03-16T10:27:33.784Z,100024.13
2023-03-16T10:30:40.629Z,99997.63
2023-03-16T10:33:34.901Z,100018.75
2023-03-16T10:36:33.769Z,100034.69
2023-03-16T10:39:21.494Z,100017.09
2023-03-16T10:42:17.947Z,100027.84
2023-03-16T10:45:06.578Z,100025.28
2023-03-16T10:47:54.596Z,100029.81
2023-03-16T10:50:44.830Z,100028.50
2023-03-16T10:53:38.616Z,100034.59
2023-03-16T10:56:26.606Z,100002.63
2023-03-16T10:59:35.310Z,100024.66
2023-03-16T11:02:30.975Z,100021.91
2023-03-16T11:05:23.675Z,100019.19
2023-03-16T11:08:24.151Z,100003.41
2023-03-16T11:11:33.019Z,100005.00
2023-03-16T11:14:37.531Z,100011.88
2023-03-16T11:17:40.128Z,100009.41
2023-03-16T11:20:32.943Z,99998.75
2023-03-16T11:23:29.330Z,100007.59
2023-03-16T11:26:28.160Z,100007.75
2023-03-16T11:29:26.912Z,99976.59
2023-03-16T11:32:22.783Z,100005.00
2023-03-16T11:35:17.884Z,99989.97
2023-03-16T11:38:19.331Z,100017.19
2023-03-16T11:41:24.036Z,100006.22
2023-03-16T11:44:19.650Z,100006.56
2023-03-16T11:47:36.270Z,100011.47
2023-03-16T11:50:52.015Z,100011.34
2023-03-16T11:54:06.771Z,100013.69
2023-03-16T11:57:10.387Z,100012.06
2023-03-16T12:00:17.085Z,99976.75
2023-03-16T12:03:29.154Z,99982.44
2023-03-16T12:06:40.973Z,100012.00
2023-03-16T12:09:51.717Z,100020.72
2023-03-16T12:12:53.652Z,100014.09
2023-03-16T12:16:09.358Z,100015.13
2023-03-16T12:19:07.270Z,99989.50
2023-03-16T12:22:15.535Z,100027.81
2023-03-16T12:25:13.398Z,100028.22
2023-03-16T12:28:05.692Z,100035.16
2023-03-16T12:30:53.166Z,100037.94
2023-03-16T12:34:19.546Z,100042.97
2023-03-16T12:37:19.691Z,100043.75
2023-03-16T12:40:27.365Z,100040.81
2023-03-16T12:43:46.653Z,100041.47
2023-03-16T12:47:20.132Z,100059.59
2023-03-16T12:50:11.630Z,100045.88
2023-03-16T12:52:59.971Z,100051.13
2023-03-16T12:55:53.204Z,100051.78
2023-03-16T12:58:47.423Z,100051.91
2023-03-16T13:01:45.094Z,100063.38
2023-03-16T13:05:10.300Z,100052.75
2023-03-16T13:08:18.789Z,100043.75
2023-03-16T13:11:12.392Z,100063.19
2023-03-16T13:13:59.979Z,100071.56
2023-03-16T13:16:50.804Z,100078.06
2023-03-16T13:19:40.150Z,100075.38
2023-03-16T13:22:46.303Z,100088.28
2023-03-16T13:25:43.850Z,100086.69
2023-03-16T13:28:35.621Z,100019.94
2023-03-16T13:31:27.837Z,100096.38
2023-03-16T13:34:21.495Z,100094.38
2023-03-16T13:37:15.415Z,100099.56
2023-03-16T13:40:06.178Z,100097.63
2023-03-16T13:42:55.587Z,100100.69
2023-03-16T13:45:44.112Z,100110.38
2023-03-16T13:48:37.523Z,100098.94
2023-03-16T13:51:25.316Z,100104.59
2023-03-16T13:54:30.045Z,100121.06
2023-03-16T13:57:21.677Z,100117.19
2023-03-16T14:00:28.316Z,100118.00
2023-03-16T14:03:18.975Z,100100.97
2023-03-16T14:06:19.002Z,100124.59
2023-03-16T14:09:15.737Z,100121.34
2023-03-16T14:12:05.793Z,100133.66
2023-03-16T14:14:56.123Z,100116.06
2023-03-16T14:17:44.051Z,100138.94
2023-03-16T14:20:34.951Z,100146.38
2023-03-16T14:23:40.962Z,100144.94
2023-03-16T14:26:43.654Z,100136.03
2023-03-16T14:29:31.682Z,100144.16
2023-03-16T14:35:44.186Z,100152.09
2023-03-16T14:38:36.346Z,100153.88
2023-03-16T14:41:30.262Z,100155.84
2023-03-16T14:44:24.437Z,100163.44
2023-03-16T14:47:24.432Z,100164.69
2023-03-16T14:50:22.347Z,100156.47
2023-03-16T14:53:12.158Z,100176.44
2023-03-16T14:55:59.982Z,100178.53
2023-03-16T14:58:47.643Z,100174.19
2023-03-16T15:01:36.260Z,100181.59
2023-03-16T15:04:35.043Z,100186.44
2023-03-16T15:07:29.902Z,100189.16
2023-03-16T15:10:24.808Z,100179.00
2023-03-16T15:13:24.660Z,100191.75
2023-03-16T15:16:14.424Z,100184.16
2023-03-16T15:19:02.442Z,100197.72
2023-03-16T15:21:53.198Z,100209.13
2023-03-16T15:24:41.054Z,100202.97
2023-03-16T15:27:34.829Z,100222.50
2023-03-16T15:30:29.038Z,100218.28
2023-03-16T15:33:20.160Z,100221.97
2023-03-16T15:36:15.940Z,100214.59
2023-03-16T15:39:04.602Z,100236.16
2023-03-16T15:41:52.889Z,100224.84
2023-03-16T15:44:40.492Z,100228.56
2023-03-16T15:47:28.183Z,100236.97
2023-03-16T15:50:22.135Z,100228.72
2023-03-16T15:53:36.123Z,100236.81
2023-03-16T15:56:30.146Z,100245.03
2023-03-16T15:59:18.176Z,100243.06
2023-03-16T16:02:33.109Z,100252.41
2023-03-16T16:05:23.455Z,100258.34
2023-03-16T16:08:11.984Z,100238.78
2023-03-16T16:11:00.150Z,100267.81
2023-03-16T16:13:48.613Z,100268.13
2023-03-16T16:16:37.524Z,100208.03
2023-03-16T16:19:27.333Z,100279.22
2023-03-16T16:22:15.193Z,100278.91
2023-03-16T16:25:02.900Z,100268.94
2023-03-16T16:27:54.096Z,100298.94
2023-03-16T16:30:42.168Z,100297.97
2023-03-16T16:33:33.461Z,100288.22
2023-03-16T16:36:23.606Z,100300.41
2023-03-16T16:39:12.206Z,100293.38
2023-03-16T16:41:59.950Z,100320.53
2023-03-16T16:44:47.742Z,100318.38
2023-03-16T16:47:35.336Z,100322.97
2023-03-16T16:50:26.558Z,100334.91
2023-03-16T16:53:21.064Z,100312.78
2023-03-16T16:56:14.437Z,100311.59
2023-03-16T16:59:18.578Z,100346.88
2023-03-16T17:02:33.423Z,100346.50
2023-03-16T17:05:27.829Z,100345.91
2023-03-16T17:08:16.273Z,100349.44
2023-03-16T17:11:05.175Z,100320.44
2023-03-16T17:13:58.547Z,100357.81
2023-03-16T17:16:52.029Z,100348.25
2023-03-16T17:19:40.437Z,100367.94
2023-03-16T17:22:28.709Z,100366.97
2023-03-16T17:25:16.906Z,100374.19
2023-03-16T17:28:04.855Z,100347.34
2023-03-16T17:30:53.194Z,100376.66
2023-03-16T17:33:41.125Z,100342.28
2023-03-16T17:36:29.521Z,100378.69
2023-03-16T17:39:35.372Z,100373.56
2023-03-16T17:42:26.736Z,100383.84
2023-03-16T17:45:33.202Z,100374.66
2023-03-16T17:48:23.108Z,100397.72
2023-03-16T17:51:16.735Z,100401.25
2023-03-16T17:54:05.460Z,100399.28
2023-03-16T17:56:54.265Z,100403.91
2023-03-16T17:59:42.547Z,100410.38
2023-03-16T18:02:43.456Z,100424.59
2023-03-16T18:05:34.143Z,100405.38
2023-03-16T18:08:27.391Z,100421.34
2023-03-16T18:11:22.100Z,100380.00
2023-03-16T18:14:27.980Z,100419.53
2023-03-16T18:17:29.290Z,100433.59
2023-03-16T18:20:36.850Z,100431.75
2023-03-16T18:23:33.889Z,100436.44
2023-03-16T18:26:22.370Z,100438.03
2023-03-16T18:29:12.163Z,100438.25
2023-03-16T18:32:01.359Z,100439.78
2023-03-16T18:34:50.012Z,100443.94
2023-03-16T18:37:37.913Z,100443.22
2023-03-16T18:40:26.915Z,100453.66
2023-03-16T18:43:18.342Z,100451.44
2023-03-16T18:46:20.991Z,100452.84
2023-03-16T18:49:38.140Z,100458.31
2023-03-16T18:52:29.410Z,100473.91
2023-03-16T18:55:21.447Z,100465.91
2023-03-16T18:58:17.814Z,100433.81
2023-03-16T19:01:06.617Z,100461.84
2023-03-16T19:03:56.567Z,100469.16
2023-03-16T19:06:44.861Z,100482.81
2023-03-16T19:09:32.910Z,100475.72
2023-03-16T19:12:21.502Z,100487.44
2023-03-16T19:15:39.599Z,100491.22
2023-03-16T19:18:27.338Z,100471.06
2023-03-16T19:21:25.495Z,100465.59
2023-03-16T19:24:24.893Z,100419.84
2023-03-16T19:27:25.824Z,100454.88
2023-03-16T19:30:44.731Z,100493.13
2023-03-16T19:33:35.129Z,100516.91
2023-03-16T19:36:30.708Z,100514.88
2023-03-16T19:39:18.510Z,100514.19
2023-03-16T19:42:06.344Z,100525.25
2023-03-16T19:44:54.458Z,100495.91
2023-03-16T19:47:42.371Z,100523.88
2023-03-16T19:50:30.700Z,100521.22
2023-03-16T19:53:21.627Z,100515.75
2023-03-16T19:56:20.347Z,100525.56
2023-03-16T19:59:10.376Z,100519.34
2023-03-16T20:01:58.213Z,100510.22
2023-03-16T20:04:45.850Z,100532.31
2023-03-16T20:07:38.261Z,100538.34
2023-03-16T20:10:28.730Z,100551.69
2023-03-16T20:13:16.916Z,100523.75
2023-03-16T20:16:04.766Z,100549.41
2023-03-16T20:18:57.843Z,100557.97
2023-03-16T20:21:45.651Z,100538.88
2023-03-16T20:24:33.470Z,100556.91
2023-03-16T20:27:23.332Z,100571.50
2023-03-16T20:30:20.162Z,100572.25
2023-03-16T20:33:16.593Z,100546.28
2023-03-16T20:36:04.734Z,100560.31
2023-03-16T20:38:52.352Z,100568.91
2023-03-16T20:41:40.289Z,100576.97
2023-03-16T20:44:30.478Z,100574.94
2023-03-16T20:47:21.206Z,100581.16
2023-03-16T20:50:24.555Z,100589.09
2023-03-16T20:53:12.590Z,100599.06
2023-03-16T20:56:00.263Z,100595.38
2023-03-16T20:58:50.094Z,100580.50
2023-03-16T21:01:44.198Z,100605.03
2023-03-16T21:04:32.732Z,100600.63
2023-03-16T21:07:20.584Z,100605.72
2023-03-16T21:10:09.223Z,100597.44
2023-03-16T21:12:58.026Z,100604.09
2023-03-16T21:15:46.165Z,100613.75
2023-03-16T21:18:33.796Z,100609.03
2023-03-16T21:21:21.755Z,100593.88
2023-03-16T21:24:09.782Z,100624.91
2023-03-16T21:26:57.729Z,100609.16
2023-03-16T21:29:45.447Z,100614.75
2023-03-16T21:32:36.669Z,100616.91
2023-03-16T21:35:39.104Z,100581.22
2023-03-16T21:38:29.654Z,100609.25
2023-03-16T21:41:17.933Z,100612.69
2023-03-16T21:44:05.913Z,100610.78
2023-03-16T21:46:54.488Z,100625.53
2023-03-16T21:49:42.519Z,100535.97
2023-03-16T21:52:31.217Z,100627.25
2023-03-16T21:55:26.096Z,100620.69
2023-03-16T21:58:13.784Z,100593.91
2023-03-16T22:01:01.719Z,100609.41
2023-03-16T22:03:53.406Z,100641.91
2023-03-16T22:06:42.842Z,100618.25
2023-03-16T22:09:33.104Z,100628.94
2023-03-16T22:12:21.316Z,100648.19
2023-03-16T22:15:09.533Z,100653.66
2023-03-16T22:17:57.586Z,100650.41
2023-03-16T22:20:45.603Z,100662.16
2023-03-16T22:23:37.877Z,100663.88
2023-03-16T22:26:25.784Z,100663.41
2023-03-16T22:29:28.672Z,100655.97
2023-03-16T22:32:19.764Z,100672.84
2023-03-16T22:35:21.254Z,100671.09
2023-03-16T22:38:13.432Z,100679.50
2023-03-16T22:41:01.035Z,100677.22
2023-03-16T22:43:49.023Z,100677.97
2023-03-16T22:46:36.886Z,100677.22
2023-03-16T22:49:28.474Z,100664.31
2023-03-16T22:52:17.451Z,100662.00
2023-03-16T22:55:07.226Z,100698.91
2023-03-16T22:58:24.081Z,100695.88
2023-03-16T23:01:19.063Z,100704.06
2023-03-16T23:04:21.509Z,100705.84
2023-03-16T23:07:11.586Z,100711.69
2023-03-16T23:09:59.270Z,100726.06
2023-03-16T23:12:47.157Z,100722.00
2023-03-16T23:15:35.357Z,100726.50
2023-03-16T23:18:26.554Z,100733.38
2023-03-16T23:21:30.433Z,100729.38
2023-03-16T23:27:37.841Z,100738.25
2023-03-16T23:30:26.076Z,100713.88
2023-03-16T23:33:17.823Z,100742.59
2023-03-16T23:36:13.642Z,100747.53
2023-03-16T23:39:01.369Z,100734.34
2023-03-16T23:41:50.510Z,100756.34
2023-03-16T23:44:38.269Z,100747.75
2023-03-16T23:47:25.956Z,100758.16
2023-03-16T23:50:17.158Z,100747.53
2023-03-16T23:53:12.558Z,100763.41
2023-03-16T23:56:01.192Z,100773.97
2023-03-16T23:58:49.464Z,100765.34
